Time;durP1;ratioP1;P1;durP2;ratioP2;P2;SDS_P1;SDS_P2;PMS_P1;PMS_P2;Temp;Humidity;BMP_temperature;BMP_pressure;BME280_temperature;BME280_humidity;BME280_pressure;Samples;Min_cycle;Max_cycle;Signal;HPM_P1;HPM_P2
2023/09/11 00:01:53;;;;;;;0.73;0.68;;;25.20;68.70;;;;;;6382801;27;20122;-50
2023/09/11 00:04:55;;;;;;;0.68;0.65;;;25.30;68.60;;;;;;6382282;28;20082;-49
2023/09/11 00:07:59;;;;;;;0.90;0.90;;;25.10;68.60;;;;;;6386974;28;20031;-51
2023/09/11 00:11:01;;;;;;;0.73;0.63;;;24.90;68.30;;;;;;6384790;28;20073;-51
2023/09/11 00:14:02;;;;;;;0.77;0.68;;;25.20;68.50;;;;;;6383092;28;20050;-50
2023/09/11 00:17:04;;;;;;;1.23;0.70;;;25.20;68.50;;;;;;6383115;28;20040;-50
2023/09/11 00:20:10;;;;;;;0.60;0.60;;;25.20;68.50;;;;;;6375667;28;20750;-52
2023/09/11 00:23:12;;;;;;;0.77;0.60;;;25.10;68.30;;;;;;6373667;28;20039;-52
2023/09/11 00:26:15;;;;;;;0.60;0.60;;;25.20;68.40;;;;;;6377840;28;20039;-53
2023/09/11 00:29:17;;;;;;;0.60;0.60;;;24.90;68.10;;;;;;6384760;28;20035;-52
2023/09/11 00:32:19;;;;;;;0.75;0.70;;;25.10;68.20;;;;;;6382993;28;20035;-50
2023/09/11 00:35:20;;;;;;;0.80;0.80;;;25.20;68.30;;;;;;6375755;28;20106;-50
2023/09/11 00:38:23;;;;;;;0.80;0.70;;;25.30;68.40;;;;;;6377578;28;20033;-52
2023/09/11 00:41:27;;;;;;;0.68;0.68;;;25.10;68.10;;;;;;6372149;28;20131;-49
2023/09/11 00:44:29;;;;;;;0.73;0.50;;;25.10;68.10;;;;;;6376635;28;20619;-52
2023/09/11 00:47:31;;;;;;;0.55;0.52;;;25.10;68.10;;;;;;6377425;28;20098;-52
2023/09/11 00:50:33;;;;;;;0.90;0.63;;;25.10;68.20;;;;;;6372847;27;20122;-52
2023/09/11 00:53:35;;;;;;;0.50;0.50;;;25.10;68.10;;;;;;6373985;28;20729;-50
2023/09/11 00:56:42;;;;;;;0.80;0.70;;;25.10;68.00;;;;;;6374468;28;20035;-51
2023/09/11 00:59:44;;;;;;;0.73;0.60;;;25.00;67.90;;;;;;6371474;27;20053;-53
2023/09/11 01:02:46;;;;;;;1.35;0.98;;;25.10;68.00;;;;;;6373499;28;20134;-53
2023/09/11 01:05:50;;;;;;;0.88;0.70;;;25.20;68.00;;;;;;6374070;28;20042;-53
2023/09/11 01:08:56;;;;;;;0.70;0.63;;;24.80;67.70;;;;;;6373207;28;20031;-48
2023/09/11 01:11:58;;;;;;;0.80;0.70;;;25.00;67.80;;;;;;6375530;27;20055;-50
2023/09/11 01:14:59;;;;;;;0.60;0.60;;;24.80;67.80;;;;;;6378768;28;20043;-47
2023/09/11 01:18:08;;;;;;;0.80;0.60;;;24.80;67.80;;;;;;6379028;28;20413;-47
2023/09/11 01:21:38;;;;;;;0.60;0.60;;;25.00;67.80;;;;;;6370918;28;20084;-51
2023/09/11 01:24:58;;;;;;;0.68;0.52;;;25.10;67.90;;;;;;6362526;22;20874;-52
2023/09/11 01:28:29;;;;;;;0.60;0.50;;;25.10;67.90;;;;;;6271770;28;20040;-52
2023/09/11 01:31:32;;;;;;;0.40;0.40;;;25.10;67.80;;;;;;6288068;28;20060;-53
2023/09/11 01:34:34;;;;;;;1.00;0.60;;;25.10;67.80;;;;;;6288288;28;20090;-53
2023/09/11 01:37:35;;;;;;;0.70;0.65;;;25.10;67.90;;;;;;6288276;28;20048;-52
2023/09/11 01:40:40;;;;;;;0.85;0.80;;;24.90;67.80;;;;;;6288201;28;20734;-51
2023/09/11 01:43:45;;;;;;;1.02;0.75;;;24.90;67.70;;;;;;6288773;28;20048;-55
2023/09/11 01:46:53;;;;;;;1.33;0.63;;;25.10;67.70;;;;;;6288870;28;20052;-53
2023/09/11 01:49:57;;;;;;;0.43;0.40;;;25.00;67.70;;;;;;6270280;28;20036;-54
2023/09/11 01:52:59;;;;;;;0.60;0.50;;;24.60;67.40;;;;;;6287218;28;20064;-52
2023/09/11 01:56:02;;;;;;;0.52;0.45;;;25.00;67.60;;;;;;6284670;28;20071;-51
2023/09/11 01:59:05;;;;;;;0.70;0.50;;;25.00;67.60;;;;;;6287063;28;20134;-53
2023/09/11 02:02:07;;;;;;;0.60;0.60;;;24.50;67.40;;;;;;6287113;28;20122;-52
2023/09/11 02:05:10;;;;;;;0.63;0.63;;;25.10;67.70;;;;;;6286614;28;20044;-52
2023/09/11 02:08:14;;;;;;;0.82;0.65;;;25.00;67.60;;;;;;6287397;28;20072;-51
2023/09/11 02:11:17;;;;;;;0.65;0.60;;;24.60;67.10;;;;;;6286867;28;20306;-53
2023/09/11 02:14:18;;;;;;;0.55;0.47;;;24.90;67.70;;;;;;6286799;28;20032;-52
2023/09/11 02:17:24;;;;;;;0.60;0.60;;;24.60;67.50;;;;;;6287684;28;20037;-52
2023/09/11 02:20:26;;;;;;;0.43;0.40;;;24.70;67.50;;;;;;6286712;28;20048;-50
2023/09/11 02:23:27;;;;;;;0.60;0.60;;;25.00;67.80;;;;;;6287340;28;20118;-52
2023/09/11 02:26:29;;;;;;;0.68;0.60;;;24.90;67.70;;;;;;6286684;28;20037;-54
2023/09/11 02:29:34;;;;;;;0.77;0.57;;;24.90;67.70;;;;;;6287471;28;20403;-54
2023/09/11 02:32:36;;;;;;;0.57;0.40;;;24.90;67.60;;;;;;6285582;28;20040;-53
2023/09/11 02:35:38;;;;;;;0.63;0.52;;;25.00;67.70;;;;;;6286000;28;20043;-53
2023/09/11 02:38:40;;;;;;;0.50;0.50;;;25.20;67.80;;;;;;6286016;28;20039;-52
2023/09/11 02:41:45;;;;;;;0.70;0.70;;;25.10;67.80;;;;;;6286788;28;20085;-52
2023/09/11 02:44:48;;;;;;;0.40;0.38;;;24.60;67.40;;;;;;6286453;28;20052;-53
2023/09/11 02:47:51;;;;;;;0.73;0.60;;;25.00;67.70;;;;;;6285082;28;20469;-53
2023/09/11 02:50:52;;;;;;;0.55;0.47;;;24.90;67.60;;;;;;6286063;28;20318;-51
2023/09/11 02:53:54;;;;;;;0.70;0.60;;;25.10;67.90;;;;;;6286562;28;20121;-54
2023/09/11 02:56:56;;;;;;;0.77;0.50;;;25.00;67.70;;;;;;6286233;28;20139;-54
2023/09/11 02:59:57;;;;;;;0.40;0.38;;;24.90;67.70;;;;;;6286135;28;20098;-52
2023/09/11 03:03:01;;;;;;;0.95;0.57;;;25.00;67.80;;;;;;6286325;28;20443;-52
2023/09/11 03:06:04;;;;;;;0.70;0.50;;;24.80;67.60;;;;;;6285783;28;20111;-52
2023/09/11 03:09:06;;;;;;;0.50;0.40;;;24.90;67.60;;;;;;6287055;28;20040;-53
2023/09/11 03:12:07;;;;;;;0.73;0.60;;;25.00;67.80;;;;;;6286315;28;20049;-52
2023/09/11 03:15:10;;;;;;;0.65;0.65;;;24.80;67.60;;;;;;6286498;28;20086;-52
2023/09/11 03:18:12;;;;;;;0.52;0.52;;;24.80;67.60;;;;;;6285821;28;20268;-51
2023/09/11 03:21:14;;;;;;;0.60;0.55;;;25.00;67.70;;;;;;6285816;28;20032;-51
2023/09/11 03:24:15;;;;;;;0.68;0.50;;;24.90;67.70;;;;;;6286394;28;20028;-52
2023/09/11 03:27:17;;;;;;;0.63;0.60;;;24.90;67.70;;;;;;6285977;28;20160;-52
2023/09/11 03:30:20;;;;;;;0.85;0.73;;;24.90;67.80;;;;;;6287251;28;20063;-50
2023/09/11 03:33:23;;;;;;;0.50;0.40;;;24.80;67.70;;;;;;6287636;28;20037;-53
2023/09/11 03:36:27;;;;;;;0.40;0.40;;;24.80;67.70;;;;;;6288752;28;20048;-52
2023/09/11 03:39:32;;;;;;;0.70;0.60;;;25.00;67.80;;;;;;6292040;28;20044;-55
2023/09/11 03:42:34;;;;;;;1.05;0.50;;;24.80;67.80;;;;;;6291738;28;20060;-52
2023/09/11 03:45:35;;;;;;;0.90;0.70;;;25.10;67.90;;;;;;6291553;28;20042;-52
2023/09/11 03:48:37;;;;;;;1.00;0.80;;;25.00;67.90;;;;;;6292287;28;20036;-54
2023/09/11 03:51:40;;;;;;;0.68;0.68;;;24.90;67.90;;;;;;6291262;28;20040;-52
2023/09/11 03:54:42;;;;;;;0.90;0.70;;;25.00;68.00;;;;;;6291827;28;20048;-54
2023/09/11 03:57:43;;;;;;;0.65;0.50;;;24.90;67.90;;;;;;6291729;28;20111;-50
2023/09/11 04:00:45;;;;;;;0.63;0.60;;;24.80;67.90;;;;;;6291581;28;20059;-52
2023/09/11 04:03:48;;;;;;;0.98;0.50;;;24.90;68.00;;;;;;6290261;28;20264;-51
2023/09/11 04:06:49;;;;;;;0.70;0.50;;;25.00;68.00;;;;;;6290008;28;20037;-54
2023/09/11 04:09:51;;;;;;;0.90;0.90;;;24.50;67.70;;;;;;6290926;28;20043;-54
2023/09/11 04:12:53;;;;;;;0.60;0.50;;;24.70;67.90;;;;;;6290461;28;20036;-53
2023/09/11 04:15:55;;;;;;;0.70;0.52;;;24.80;67.90;;;;;;6291102;28;20036;-52
2023/09/11 04:18:57;;;;;;;0.75;0.70;;;24.90;68.00;;;;;;6290497;28;20179;-54
2023/09/11 04:21:59;;;;;;;0.73;0.50;;;24.90;68.00;;;;;;6289998;28;20121;-54
2023/09/11 04:25:01;;;;;;;0.85;0.55;;;24.90;68.00;;;;;;6290791;28;20063;-54
2023/09/11 04:28:03;;;;;;;0.50;0.50;;;25.00;68.10;;;;;;6290681;28;20041;-54
2023/09/11 04:31:04;;;;;;;0.50;0.50;;;24.80;68.00;;;;;;6289505;28;20040;-52
2023/09/11 04:34:07;;;;;;;0.57;0.50;;;24.60;68.00;;;;;;6290235;28;20033;-53
2023/09/11 04:37:13;;;;;;;1.08;0.70;;;24.70;67.80;;;;;;6289825;28;20064;-52
2023/09/11 04:40:15;;;;;;;0.55;0.55;;;24.90;67.50;;;;;;6291084;28;20029;-52
2023/09/11 04:43:20;;;;;;;0.80;0.60;;;24.70;68.00;;;;;;6289870;28;20037;-53
2023/09/11 04:46:22;;;;;;;0.50;0.50;;;24.80;68.00;;;;;;6289520;28;20063;-54
2023/09/11 04:49:24;;;;;;;0.90;0.57;;;24.70;68.00;;;;;;6290461;28;20071;-51
2023/09/11 04:52:26;;;;;;;0.80;0.70;;;24.80;68.10;;;;;;6290120;28;20041;-53
2023/09/11 04:55:28;;;;;;;0.70;0.60;;;24.80;68.10;;;;;;6289000;28;20457;-52
2023/09/11 04:58:30;;;;;;;0.75;0.70;;;24.70;68.00;;;;;;6289154;28;20563;-54
2023/09/11 05:01:32;;;;;;;0.60;0.60;;;24.80;68.20;;;;;;6288530;28;20414;-52
2023/09/11 05:04:38;;;;;;;0.68;0.60;;;24.80;68.10;;;;;;6243478;28;20576;-52
2023/09/11 05:07:40;;;;;;;0.80;0.80;;;24.70;67.90;;;;;;6267983;28;20098;-54
2023/09/11 05:10:43;;;;;;;0.80;0.60;;;25.00;68.20;;;;;;6270902;28;20269;-54
2023/09/11 05:13:46;;;;;;;0.80;0.68;;;24.80;68.00;;;;;;6255886;28;20037;-53
2023/09/11 05:16:49;;;;;;;0.47;0.40;;;24.50;68.10;;;;;;6273432;28;20043;-51
2023/09/11 05:19:51;;;;;;;0.38;0.38;;;25.00;68.10;;;;;;6274094;28;20040;-51
2023/09/11 05:22:52;;;;;;;0.77;0.68;;;24.90;68.70;;;;;;6267573;28;20047;-54
2023/09/11 05:25:54;;;;;;;0.82;0.75;;;24.60;68.00;;;;;;6273973;28;20040;-51
2023/09/11 05:28:55;;;;;;;0.85;0.80;;;25.00;68.20;;;;;;6275001;28;20028;-53
2023/09/11 05:31:57;;;;;;;0.52;0.52;;;24.40;67.90;;;;;;6271755;28;20037;-52
2023/09/11 05:34:59;;;;;;;0.50;0.50;;;24.70;68.00;;;;;;6269261;28;20064;-45
2023/09/11 05:38:01;;;;;;;0.50;0.50;;;24.70;68.00;;;;;;6254085;28;20161;-44
2023/09/11 05:41:04;;;;;;;0.85;0.70;;;24.70;68.00;;;;;;6269541;28;20036;-45
2023/09/11 05:44:06;;;;;;;0.85;0.55;;;24.80;68.20;;;;;;6270193;28;21201;-46
2023/09/11 05:47:07;;;;;;;0.90;0.65;;;24.60;68.10;;;;;;6267835;28;20585;-44
2023/09/11 05:50:17;;;;;;;1.00;0.60;;;24.80;68.20;;;;;;6272896;28;20499;-44
2023/09/11 05:53:18;;;;;;;0.93;0.70;;;24.70;68.10;;;;;;6269393;28;20041;-47
2023/09/11 05:56:20;;;;;;;0.65;0.57;;;24.80;68.30;;;;;;6263362;28;20043;-44
2023/09/11 05:59:23;;;;;;;0.60;0.60;;;24.40;68.60;;;;;;6269770;28;20041;-47
2023/09/11 06:02:24;;;;;;;0.80;0.55;;;24.90;68.30;;;;;;6266318;28;20041;-46
2023/09/11 06:05:27;;;;;;;0.90;0.80;;;24.90;68.30;;;;;;6263172;28;20527;-44
2023/09/11 06:08:28;;;;;;;0.63;0.60;;;24.90;68.40;;;;;;6269334;28;20112;-44
2023/09/11 06:11:30;;;;;;;0.70;0.60;;;24.80;68.30;;;;;;6271157;28;20036;-48
2023/09/11 06:14:37;;;;;;;1.02;0.68;;;24.70;68.30;;;;;;6267314;28;20115;-46
2023/09/11 06:17:39;;;;;;;0.77;0.63;;;24.70;68.20;;;;;;6248298;28;20037;-47
2023/09/11 06:20:47;;;;;;;0.75;0.70;;;24.80;68.40;;;;;;6237307;28;20098;-45
2023/09/11 06:23:49;;;;;;;0.68;0.60;;;24.80;68.40;;;;;;6267451;28;20107;-46
2023/09/11 06:27:03;;;;;;;0.70;0.70;;;24.30;68.00;;;;;;6264327;28;20070;-47
2023/09/11 06:30:05;;;;;;;0.70;0.68;;;24.70;68.30;;;;;;6252420;28;20056;-46
2023/09/11 06:33:07;;;;;;;0.65;0.45;;;24.80;68.20;;;;;;6267408;28;20036;-45
2023/09/11 06:36:09;;;;;;;0.70;0.70;;;24.80;68.30;;;;;;6266643;28;20079;-45
2023/09/11 06:39:11;;;;;;;1.00;0.70;;;24.60;68.10;;;;;;6236928;28;20032;-49
2023/09/11 06:42:19;;;;;;;1.08;0.75;;;24.80;68.70;;;;;;6261745;28;20033;-48
2023/09/11 06:45:21;;;;;;;1.80;1.10;;;24.90;68.20;;;;;;6247235;28;20033;-43
2023/09/11 06:48:23;;;;;;;4.03;2.10;;;24.80;68.40;;;;;;6258206;28;20040;-45
2023/09/11 06:51:28;;;;;;;4.13;1.30;;;24.80;68.90;;;;;;6257686;28;20643;-45
2023/09/11 06:54:29;;;;;;;3.75;2.50;;;24.80;68.50;;;;;;6263984;28;20577;-46
2023/09/11 06:57:31;;;;;;;2.92;2.17;;;24.80;68.70;;;;;;6258839;28;20064;-46
2023/09/11 07:00:36;;;;;;;3.00;2.00;;;24.70;69.20;;;;;;6254347;28;20123;-46
2023/09/11 07:03:37;;;;;;;2.95;2.08;;;24.70;68.80;;;;;;6255518;28;20037;-46
2023/09/11 07:06:42;;;;;;;5.32;3.17;;;24.80;68.90;;;;;;6256884;28;20059;-44
2023/09/11 07:09:43;;;;;;;4.63;2.70;;;24.60;69.00;;;;;;6254211;28;20071;-45
2023/09/11 07:12:45;;;;;;;6.15;2.67;;;24.80;69.30;;;;;;6253874;28;20051;-45
2023/09/11 07:15:55;;;;;;;5.45;3.00;;;24.90;69.40;;;;;;6242035;28;20036;-46
2023/09/11 07:18:57;;;;;;;6.28;3.40;;;24.50;69.90;;;;;;6241351;28;20467;-46
2023/09/11 12:47:11;;;;;;;4.40;2.90;;;24.40;87.80;;;;;;6363740;27;20314;-54
2023/09/11 12:50:13;;;;;;;5.82;3.38;;;24.60;73.20;;;;;;6353927;27;20022;-54
2023/09/11 12:53:15;;;;;;;5.05;2.63;;;24.70;73.80;;;;;;6362941;27;20030;-52
2023/09/11 12:56:20;;;;;;;9.55;2.55;;;24.70;72.10;;;;;;6367739;27;20329;-53
2023/09/11 12:59:23;;;;;;;3.95;2.70;;;25.00;72.00;;;;;;6350870;27;20034;-56
2023/09/11 13:02:33;;;;;;;5.00;3.10;;;25.10;71.60;;;;;;6375795;27;20457;-55
2023/09/11 13:05:35;;;;;;;4.05;2.75;;;25.00;71.20;;;;;;6368296;27;20091;-54
2023/09/11 13:08:37;;;;;;;5.50;3.97;;;25.30;71.10;;;;;;6362139;27;20038;-50
2023/09/11 13:11:38;;;;;;;6.80;2.72;;;25.30;70.80;;;;;;6364038;27;20034;-55
2023/09/11 13:14:40;;;;;;;3.08;2.78;;;25.30;70.30;;;;;;6369739;27;20091;-53
2023/09/11 13:17:43;;;;;;;3.72;3.33;;;25.40;70.90;;;;;;6372361;27;20031;-49
2023/09/11 13:20:45;;;;;;;3.72;2.58;;;25.60;70.80;;;;;;6324326;27;20038;-56
2023/09/11 13:23:46;;;;;;;3.90;2.63;;;24.60;67.70;;;;;;6367364;27;20027;-55
2023/09/11 13:26:48;;;;;;;5.20;3.25;;;25.60;68.10;;;;;;6366557;27;20121;-53
2023/09/11 13:29:52;;;;;;;3.88;2.58;;;25.60;68.50;;;;;;6359828;27;20468;-54
2023/09/11 13:32:54;;;;;;;2.90;2.50;;;25.50;67.80;;;;;;6371968;27;20034;-53
2023/09/11 13:35:56;;;;;;;2.97;2.22;;;25.60;67.60;;;;;;6368554;27;20599;-52
2023/09/11 13:38:57;;;;;;;2.67;2.00;;;25.60;67.60;;;;;;6341223;27;20039;-53
2023/09/11 13:42:02;;;;;;;4.05;2.05;;;26.00;67.70;;;;;;6333501;27;20707;-53
2023/09/11 13:45:06;;;;;;;3.47;2.03;;;25.70;67.50;;;;;;6345836;27;20069;-52
2023/09/11 13:48:08;;;;;;;5.95;2.65;;;25.80;67.30;;;;;;6335142;27;20057;-55
2023/09/11 13:51:10;;;;;;;5.55;3.05;;;25.90;67.80;;;;;;6321947;27;20031;-54
2023/09/11 13:54:11;;;;;;;3.00;2.45;;;25.80;68.60;;;;;;6334531;27;20240;-51
2023/09/11 13:57:15;;;;;;;4.40;2.80;;;25.80;67.70;;;;;;6306266;27;20114;-47
2023/09/11 14:00:20;;;;;;;3.75;2.65;;;26.00;68.70;;;;;;6313039;27;20034;-54
2023/09/11 14:03:22;;;;;;;4.18;2.78;;;25.90;66.70;;;;;;6328776;27;20105;-53
2023/09/11 14:06:24;;;;;;;2.80;2.13;;;26.00;67.60;;;;;;6340453;27;20073;-52
2023/09/11 14:09:29;;;;;;;2.38;2.10;;;25.90;67.40;;;;;;6339381;27;20034;-48
2023/09/11 14:12:30;;;;;;;3.80;2.47;;;25.60;66.20;;;;;;6342484;27;20047;-52
2023/09/11 14:15:33;;;;;;;3.67;2.00;;;25.90;67.60;;;;;;6327211;27;20035;-53
2023/09/11 14:18:35;;;;;;;4.72;2.30;;;25.60;67.50;;;;;;6325648;27;20026;-51
2023/09/11 14:21:37;;;;;;;4.40;2.42;;;25.90;67.40;;;;;;6337087;27;20718;-51
2023/09/11 14:24:41;;;;;;;2.10;1.90;;;25.80;67.30;;;;;;6350275;27;20041;-50
2023/09/11 14:27:43;;;;;;;4.75;2.47;;;25.90;67.50;;;;;;6320797;27;20031;-50
2023/09/11 14:30:44;;;;;;;4.00;2.08;;;25.80;67.70;;;;;;6336025;27;20656;-52
2023/09/11 14:33:47;;;;;;;3.03;2.40;;;25.90;67.50;;;;;;6346724;27;20047;-51
2023/09/11 14:36:51;;;;;;;3.65;2.30;;;25.80;67.60;;;;;;6356377;27;20050;-53
2023/09/11 14:40:10;;;;;;;4.67;2.13;;;25.70;67.50;;;;;;6351332;27;20615;-51
2023/09/11 14:43:11;;;;;;;3.45;2.70;;;25.80;68.10;;;;;;6356412;27;20042;-51
2023/09/11 14:46:13;;;;;;;3.92;2.42;;;25.80;67.90;;;;;;6360877;27;20087;-52
2023/09/11 14:49:15;;;;;;;4.40;2.90;;;25.80;68.40;;;;;;6349021;27;20113;-50
2023/09/11 14:52:16;;;;;;;2.72;2.53;;;25.90;67.90;;;;;;6349922;27;20807;-51
2023/09/11 14:55:18;;;;;;;4.22;3.20;;;26.00;67.90;;;;;;6359342;27;20041;-52
2023/09/11 14:58:22;;;;;;;4.50;2.80;;;26.00;67.60;;;;;;6360019;27;20062;-55
2023/09/11 15:01:24;;;;;;;3.17;2.72;;;25.80;67.60;;;;;;6354760;27;20087;-55
2023/09/11 15:04:27;;;;;;;3.38;2.25;;;25.90;67.60;;;;;;6354613;27;20119;-56
2023/09/11 15:07:52;;;;;;;4.60;2.97;;;25.80;67.60;;;;;;6337039;27;20030;-54
2023/09/11 15:10:57;;;;;;;3.60;2.63;;;25.90;67.70;;;;;;6343837;27;20023;-53
2023/09/11 15:14:01;;;;;;;3.38;2.33;;;25.80;68.20;;;;;;6349258;27;20561;-56
2023/09/11 15:17:02;;;;;;;2.65;2.35;;;25.70;67.60;;;;;;6353224;27;20595;-53
2023/09/11 15:20:08;;;;;;;3.15;2.17;;;25.90;67.80;;;;;;6354687;27;20118;-53
2023/09/11 15:23:11;;;;;;;4.45;2.53;;;25.80;67.60;;;;;;6358215;27;20035;-52
2023/09/11 15:26:12;;;;;;;2.63;2.08;;;25.80;68.30;;;;;;6314777;27;20055;-54
2023/09/11 15:29:14;;;;;;;4.00;2.05;;;26.00;68.20;;;;;;6364214;27;20042;-50
2023/09/11 15:32:15;;;;;;;3.60;2.00;;;25.90;68.30;;;;;;6359841;27;20640;-45
2023/09/11 15:35:18;;;;;;;6.88;3.05;;;26.00;68.00;;;;;;6350355;27;20069;-48
2023/09/11 15:38:19;;;;;;;4.60;2.72;;;25.90;68.30;;;;;;6356618;27;20030;-46
2023/09/11 15:41:21;;;;;;;2.70;2.30;;;26.00;68.00;;;;;;6352980;27;20216;-49
2023/09/11 15:44:22;;;;;;;3.33;2.03;;;25.80;68.00;;;;;;6353745;27;20580;-47
2023/09/11 15:47:24;;;;;;;3.72;2.88;;;25.80;67.90;;;;;;6351819;27;20614;-49
2023/09/11 15:50:26;;;;;;;6.07;2.30;;;26.00;68.20;;;;;;6350635;27;20042;-53
2023/09/11 15:53:28;;;;;;;6.00;3.15;;;25.90;68.80;;;;;;6357725;27;20092;-51
2023/09/11 15:56:30;;;;;;;3.38;2.05;;;25.90;68.40;;;;;;6351184;27;20705;-52
2023/09/11 15:59:32;;;;;;;7.20;3.25;;;26.10;68.80;;;;;;6370677;27;20030;-53
2023/09/11 16:02:34;;;;;;;3.92;2.90;;;25.70;68.40;;;;;;6354385;27;20027;-49
2023/09/11 16:05:39;;;;;;;3.00;2.35;;;25.90;68.50;;;;;;6343447;27;20099;-52
2023/09/11 16:08:42;;;;;;;3.45;2.00;;;26.10;68.60;;;;;;6344843;27;20613;-53
2023/09/11 16:11:49;;;;;;;3.60;2.15;;;25.80;68.50;;;;;;6326747;27;20091;-53
2023/09/11 16:14:50;;;;;;;4.78;2.28;;;25.80;68.90;;;;;;6321043;27;20062;-53
2023/09/11 16:17:52;;;;;;;4.47;2.03;;;25.90;68.90;;;;;;6296500;27;20027;-49
2023/09/11 16:20:54;;;;;;;1.90;1.45;;;25.60;69.40;;;;;;6331133;27;20023;-51
2023/09/11 16:23:56;;;;;;;2.22;1.60;;;25.90;69.10;;;;;;6359890;27;20227;-52
2023/09/11 16:26:57;;;;;;;2.50;1.70;;;25.80;68.90;;;;;;6390913;27;20030;-50
2023/09/11 16:29:59;;;;;;;3.17;1.60;;;25.90;68.70;;;;;;6361720;27;20027;-49
2023/09/11 16:33:02;;;;;;;2.35;1.73;;;25.80;68.80;;;;;;6385015;27;20035;-50
2023/09/11 16:36:05;;;;;;;2.90;1.58;;;25.80;68.50;;;;;;6390039;27;20648;-50
2023/09/11 16:39:06;;;;;;;1.70;1.40;;;25.80;68.70;;;;;;6396215;27;20121;-53
2023/09/11 16:42:08;;;;;;;2.45;1.92;;;26.00;68.80;;;;;;6406375;27;20042;-52
2023/09/11 16:45:11;;;;;;;1.50;1.30;;;25.90;68.60;;;;;;6407987;27;20099;-50
2023/09/11 16:48:12;;;;;;;1.98;1.50;;;25.80;68.10;;;;;;6415544;27;20038;-53
2023/09/11 16:51:19;;;;;;;3.28;1.40;;;25.90;68.30;;;;;;6404847;27;20151;-48
2023/09/11 16:54:20;;;;;;;2.10;1.52;;;25.90;66.70;;;;;;6407751;27;20035;-52
2023/09/11 16:57:22;;;;;;;2.03;1.60;;;25.80;68.00;;;;;;6409567;27;20081;-49
2023/09/11 17:00:25;;;;;;;2.30;1.77;;;25.90;67.80;;;;;;6399584;27;20030;-51
2023/09/11 17:03:26;;;;;;;1.92;1.40;;;25.90;67.80;;;;;;6414568;27;20063;-47
2023/09/11 17:06:29;;;;;;;1.42;1.33;;;26.00;67.80;;;;;;6413444;27;20055;-51
2023/09/11 17:09:31;;;;;;;1.95;1.40;;;26.10;67.70;;;;;;6412593;27;20122;-52
2023/09/11 17:12:32;;;;;;;1.60;1.17;;;26.10;67.70;;;;;;6413140;27;20078;-51
2023/09/11 17:15:33;;;;;;;2.47;1.50;;;25.80;67.40;;;;;;6412840;27;20061;-52
2023/09/11 17:18:35;;;;;;;2.65;1.70;;;25.80;67.30;;;;;;6413832;27;20045;-52
2023/09/11 17:21:37;;;;;;;1.60;1.10;;;26.10;67.50;;;;;;6411802;27;20095;-49
2023/09/11 17:24:42;;;;;;;1.52;1.30;;;26.10;67.30;;;;;;6412742;27;20034;-50
2023/09/11 17:27:43;;;;;;;3.28;1.40;;;26.10;67.20;;;;;;6407797;27;20198;-50
2023/09/11 17:30:45;;;;;;;2.03;1.30;;;25.90;67.00;;;;;;6413306;27;20099;-53
2023/09/11 17:33:46;;;;;;;1.85;1.33;;;25.90;67.00;;;;;;6417447;27;20039;-53
2023/09/11 17:36:49;;;;;;;1.90;1.55;;;26.10;67.10;;;;;;6418938;27;20047;-51
2023/09/11 17:39:51;;;;;;;2.30;1.80;;;26.20;67.00;;;;;;6399220;27;20035;-52
2023/09/11 17:42:53;;;;;;;2.78;1.65;;;26.30;67.10;;;;;;6417702;27;20037;-50
2023/09/11 17:45:57;;;;;;;3.28;1.70;;;25.90;67.10;;;;;;6418514;27;20030;-52
2023/09/11 17:48:59;;;;;;;2.53;1.70;;;26.10;67.00;;;;;;6401899;27;20050;-52
2023/09/11 17:52:01;;;;;;;2.45;1.60;;;26.10;67.10;;;;;;6419861;27;20038;-52
2023/09/11 17:55:05;;;;;;;2.15;1.48;;;26.10;67.00;;;;;;6420400;27;20054;-51
2023/09/11 17:58:07;;;;;;;1.58;1.40;;;26.10;66.90;;;;;;6421054;27;20043;-50
2023/09/11 18:01:08;;;;;;;1.83;1.55;;;25.90;67.00;;;;;;6421867;27;20034;-52
2023/09/11 18:04:10;;;;;;;2.30;2.00;;;25.90;67.00;;;;;;6422551;27;20038;-52
2023/09/11 18:07:17;;;;;;;1.55;1.40;;;25.90;66.90;;;;;;6420703;27;20086;-52
2023/09/11 18:10:18;;;;;;;1.50;1.30;;;25.90;67.00;;;;;;6422378;27;20045;-53
2023/09/11 18:13:22;;;;;;;2.08;1.33;;;25.90;67.00;;;;;;6422785;27;20054;-53
2023/09/11 18:16:25;;;;;;;2.10;1.60;;;25.80;67.00;;;;;;6423365;27;20060;-49
2023/09/11 18:19:27;;;;;;;2.83;1.50;;;26.30;67.30;;;;;;6424496;27;20037;-53
2023/09/11 18:22:30;;;;;;;1.58;1.48;;;25.80;67.10;;;;;;6421435;27;20061;-51
2023/09/11 18:25:37;;;;;;;2.45;1.67;;;25.80;66.90;;;;;;6420887;27;20287;-50
2023/09/11 18:28:38;;;;;;;1.98;1.50;;;25.70;66.90;;;;;;6421535;27;20049;-52
2023/09/11 18:31:40;;;;;;;3.60;2.03;;;25.70;67.30;;;;;;6420509;27;20065;-50
2023/09/11 18:34:43;;;;;;;2.05;1.58;;;25.60;67.40;;;;;;6421729;27;20101;-52
2023/09/11 18:37:47;;;;;;;1.70;1.30;;;25.50;67.40;;;;;;6424439;27;20030;-50
2023/09/11 18:40:48;;;;;;;1.70;1.52;;;25.60;67.60;;;;;;6421809;27;20117;-49
2023/09/11 18:43:53;;;;;;;1.80;1.40;;;25.30;67.60;;;;;;6419986;27;20034;-50
2023/09/11 18:46:54;;;;;;;1.77;1.27;;;25.40;68.00;;;;;;6422967;27;20055;-53
2023/09/11 18:49:56;;;;;;;2.75;1.70;;;25.20;68.10;;;;;;6428408;27;20091;-51
2023/09/11 18:53:02;;;;;;;2.63;2.10;;;25.70;68.90;;;;;;6429224;27;20029;-54
2023/09/11 18:56:04;;;;;;;2.42;1.80;;;25.20;68.30;;;;;;6424568;27;20027;-51
2023/09/11 18:59:05;;;;;;;2.20;1.80;;;25.20;68.60;;;;;;6421280;27;20051;-48
2023/09/11 19:02:07;;;;;;;1.65;1.52;;;25.10;68.50;;;;;;6425052;27;20034;-50
2023/09/11 19:05:13;;;;;;;2.15;1.80;;;25.20;68.90;;;;;;6421844;27;20035;-50
2023/09/11 19:08:15;;;;;;;2.15;1.52;;;25.20;68.50;;;;;;6416658;27;20056;-52
2023/09/11 19:11:17;;;;;;;4.63;2.10;;;25.20;69.00;;;;;;6418773;27;20046;-48
2023/09/11 19:14:20;;;;;;;1.83;1.63;;;25.10;69.00;;;;;;6419159;27;20042;-53
2023/09/11 19:17:21;;;;;;;2.08;1.88;;;25.00;68.90;;;;;;6399503;27;20050;-50
2023/09/11 19:20:22;;;;;;;3.45;1.70;;;25.10;69.10;;;;;;6415451;27;20562;-52
2023/09/11 19:23:25;;;;;;;2.88;1.88;;;25.00;69.00;;;;;;6397497;27;20052;-48
2023/09/11 19:26:27;;;;;;;3.38;1.70;;;25.00;68.80;;;;;;6412265;27;20098;-48
2023/09/11 19:29:28;;;;;;;2.15;1.63;;;25.00;68.90;;;;;;6398744;27;20043;-50
2023/09/11 19:32:30;;;;;;;2.20;1.80;;;24.80;68.70;;;;;;6417991;27;20039;-52
2023/09/11 19:35:31;;;;;;;2.75;1.65;;;25.00;68.90;;;;;;6413861;27;20043;-52
2023/09/11 19:38:33;;;;;;;3.58;1.60;;;24.80;68.70;;;;;;6411855;27;20034;-52
2023/09/11 19:41:35;;;;;;;2.85;1.83;;;24.60;68.60;;;;;;6408801;27;20056;-50
2023/09/11 19:44:37;;;;;;;2.45;2.08;;;24.50;68.40;;;;;;6405682;27;20034;-51
2023/09/11 19:47:38;;;;;;;2.63;1.70;;;24.40;68.50;;;;;;6411082;27;20042;-52
2023/09/11 19:50:39;;;;;;;1.80;1.38;;;24.80;68.50;;;;;;6414611;27;20057;-52
2023/09/11 19:53:42;;;;;;;1.85;1.52;;;24.50;68.50;;;;;;6414611;27;20031;-51
2023/09/11 19:56:44;;;;;;;2.67;1.40;;;24.70;68.50;;;;;;6414849;27;20043;-51
2023/09/11 19:59:45;;;;;;;2.63;1.70;;;24.70;68.60;;;;;;6418946;27;20041;-51
2023/09/11 20:02:47;;;;;;;2.50;1.50;;;24.70;69.00;;;;;;6419827;27;20034;-51
2023/09/11 20:05:48;;;;;;;2.90;1.63;;;24.80;68.70;;;;;;6415149;27;20522;-51
2023/09/11 20:08:50;;;;;;;2.42;1.55;;;24.50;68.50;;;;;;6417080;27;20060;-47
2023/09/11 20:11:52;;;;;;;2.08;1.40;;;24.70;68.50;;;;;;6420687;27;20064;-51
2023/09/11 20:14:53;;;;;;;3.35;1.73;;;24.60;68.30;;;;;;6420925;27;20023;-50
2023/09/11 20:17:55;;;;;;;1.83;1.20;;;24.80;68.60;;;;;;6423449;27;20148;-51
2023/09/11 20:20:57;;;;;;;1.83;1.40;;;24.60;68.20;;;;;;6417988;27;20035;-51
2023/09/11 20:23:59;;;;;;;3.30;1.88;;;24.50;68.40;;;;;;6420934;27;20042;-48
2023/09/11 20:27:01;;;;;;;2.33;1.48;;;24.40;68.20;;;;;;6422523;27;20039;-50
2023/09/11 20:30:02;;;;;;;1.73;1.38;;;24.50;68.40;;;;;;6422027;27;20038;-50
2023/09/11 20:33:04;;;;;;;3.17;1.83;;;24.40;68.30;;;;;;6412963;27;20042;-52
2023/09/11 20:36:10;;;;;;;2.65;1.83;;;24.60;68.70;;;;;;6413674;27;20047;-50
2023/09/11 20:39:14;;;;;;;2.80;1.38;;;24.40;68.30;;;;;;6413829;27;20043;-52
2023/09/11 20:42:16;;;;;;;1.83;1.10;;;24.30;68.50;;;;;;6421686;27;20082;-49
2023/09/11 20:45:17;;;;;;;1.77;1.20;;;24.50;68.70;;;;;;6422728;27;20405;-52
2023/09/11 20:48:19;;;;;;;1.98;1.45;;;24.40;68.80;;;;;;6425787;27;20046;-50
2023/09/11 20:51:26;;;;;;;2.70;1.30;;;24.30;68.60;;;;;;6424714;27;20146;-50
2023/09/11 20:54:28;;;;;;;2.38;1.33;;;24.30;68.50;;;;;;6421607;27;20033;-51
2023/09/11 20:57:30;;;;;;;2.90;1.15;;;24.50;68.60;;;;;;6422207;27;20068;-53
2023/09/11 21:00:35;;;;;;;1.95;1.00;;;24.20;68.50;;;;;;6425416;27;20026;-52
2023/09/11 21:03:38;;;;;;;2.20;1.30;;;24.40;68.70;;;;;;6424060;27;20055;-54
2023/09/11 21:06:43;;;;;;;1.83;1.30;;;24.20;68.70;;;;;;6407696;27;20029;-52
2023/09/11 21:09:45;;;;;;;2.97;1.20;;;24.20;68.70;;;;;;6425429;27;20046;-51
2023/09/11 21:12:50;;;;;;;1.55;1.25;;;24.20;68.90;;;;;;6426402;27;20047;-48
2023/09/11 21:15:52;;;;;;;3.10;1.38;;;24.10;68.80;;;;;;6426699;27;20038;-50
2023/09/11 21:18:53;;;;;;;2.22;1.40;;;24.00;69.00;;;;;;6425589;27;20038;-53